sensor_id;sensor_type;location;lat;lon;timestamp;pressure;altitude;pressure_sealevel;temperature;humidity
35892;BME280;21993;42.672;23.296;2023-03-20T00:00:08;95041.88;;;9.00;56.28
35892;BME280;21993;42.672;23.296;2023-03-20T00:02:35;95044.22;;;8.81;57.03
35892;BME280;21993;42.672;23.296;2023-03-20T00:05:13;95036.13;;;8.84;56.51
35892;BME280;21993;42.672;23.296;2023-03-20T00:07:40;95041.63;;;8.92;56.76
35892;BME280;21993;42.672;23.296;2023-03-20T00:10:07;95033.41;;;8.97;56.40
35892;BME280;21993;42.672;23.296;2023-03-20T00:12:32;95038.50;;;8.98;56.39
35892;BME280;21993;42.672;23.296;2023-03-20T00:14:59;95033.41;;;8.86;57.15
35892;BME280;21993;42.672;23.296;2023-03-20T00:17:27;95029.50;;;8.91;56.74
35892;BME280;21993;42.672;23.296;2023-03-20T00:19:52;95024.34;;;8.79;57.84
35892;BME280;21993;42.672;23.296;2023-03-20T00:22:18;95031.38;;;8.89;56.89
35892;BME280;21993;42.672;23.296;2023-03-20T00:24:43;95031.44;;;8.54;57.80
35892;BME280;21993;42.672;23.296;2023-03-20T00:27:13;95027.28;;;8.52;57.69
35892;BME280;21993;42.672;23.296;2023-03-20T00:29:39;95029.84;;;8.40;58.28
35892;BME280;21993;42.672;23.296;2023-03-20T00:32:10;95024.97;;;8.36;58.20
35892;BME280;21993;42.672;23.296;2023-03-20T00:34:36;95030.97;;;8.25;57.83
35892;BME280;21993;42.672;23.296;2023-03-20T00:37:01;95022.34;;;8.12;58.46
35892;BME280;21993;42.672;23.296;2023-03-20T00:39:27;95023.41;;;8.09;58.39
35892;BME280;21993;42.672;23.296;2023-03-20T00:41:57;95025.09;;;8.10;58.41
35892;BME280;21993;42.672;23.296;2023-03-20T00:44:37;95023.19;;;8.12;59.08
35892;BME280;21993;42.672;23.296;2023-03-20T00:47:15;95021.28;;;8.14;58.32
35892;BME280;21993;42.672;23.296;2023-03-20T00:49:41;95023.91;;;8.14;58.09
35892;BME280;21993;42.672;23.296;2023-03-20T00:52:09;95024.91;;;8.25;58.48
35892;BME280;21993;42.672;23.296;2023-03-20T00:54:36;95030.38;;;7.98;58.68
35892;BME280;21993;42.672;23.296;2023-03-20T00:57:26;95022.59;;;8.09;57.89
35892;BME280;21993;42.672;23.296;2023-03-20T01:00:06;95013.66;;;8.00;58.88
35892;BME280;21993;42.672;23.296;2023-03-20T01:02:32;95018.09;;;7.87;59.28
35892;BME280;21993;42.672;23.296;2023-03-20T01:04:58;95010.13;;;7.88;59.54
35892;BME280;21993;42.672;23.296;2023-03-20T01:07:24;95014.59;;;7.75;59.95
35892;BME280;21993;42.672;23.296;2023-03-20T01:09:49;95009.13;;;7.78;59.79
35892;BME280;21993;42.672;23.296;2023-03-20T01:12:15;95002.91;;;7.68;59.98
35892;BME280;21993;42.672;23.296;2023-03-20T01:14:42;94999.50;;;7.79;59.78
35892;BME280;21993;42.672;23.296;2023-03-20T01:17:26;95011.78;;;7.89;59.14
35892;BME280;21993;42.672;23.296;2023-03-20T01:19:54;94999.88;;;7.74;59.35
35892;BME280;21993;42.672;23.296;2023-03-20T01:22:19;94997.47;;;7.71;59.92
35892;BME280;21993;42.672;23.296;2023-03-20T01:24:45;94995.69;;;7.72;59.82
35892;BME280;21993;42.672;23.296;2023-03-20T01:27:16;94999.06;;;7.61;59.67
35892;BME280;21993;42.672;23.296;2023-03-20T01:29:42;94999.03;;;7.74;59.88
35892;BME280;21993;42.672;23.296;2023-03-20T01:32:16;94992.41;;;7.57;60.56
35892;BME280;21993;42.672;23.296;2023-03-20T01:34:42;94997.56;;;7.70;60.41
35892;BME280;21993;42.672;23.296;2023-03-20T01:37:11;95000.78;;;7.73;60.21
35892;BME280;21993;42.672;23.296;2023-03-20T01:39:37;95006.28;;;7.81;60.40
35892;BME280;21993;42.672;23.296;2023-03-20T01:42:04;95000.75;;;7.86;60.21
35892;BME280;21993;42.672;23.296;2023-03-20T01:44:32;95008.31;;;7.78;60.05
35892;BME280;21993;42.672;23.296;2023-03-20T01:46:58;95010.09;;;7.77;59.65
35892;BME280;21993;42.672;23.296;2023-03-20T01:51:53;95014.53;;;7.88;60.06
35892;BME280;21993;42.672;23.296;2023-03-20T01:57:32;95007.03;;;7.59;60.52
35892;BME280;21993;42.672;23.296;2023-03-20T02:01:59;95010.97;;;7.41;60.15
35892;BME280;21993;42.672;23.296;2023-03-20T02:04:29;95010.25;;;7.26;60.96
35892;BME280;21993;42.672;23.296;2023-03-20T02:06:55;95005.25;;;7.23;60.44
35892;BME280;21993;42.672;23.296;2023-03-20T02:09:21;95011.31;;;7.48;60.37
35892;BME280;21993;42.672;23.296;2023-03-20T02:11:47;94998.63;;;7.43;60.02
35892;BME280;21993;42.672;23.296;2023-03-20T02:14:13;94997.38;;;7.36;60.78
35892;BME280;21993;42.672;23.296;2023-03-20T02:16:39;95002.31;;;7.28;61.39
35892;BME280;21993;42.672;23.296;2023-03-20T02:19:11;94995.44;;;7.27;61.03
35892;BME280;21993;42.672;23.296;2023-03-20T02:28:03;95009.75;;;7.21;60.78
35892;BME280;21993;42.672;23.296;2023-03-20T02:30:53;95000.13;;;7.22;60.94
35892;BME280;21993;42.672;23.296;2023-03-20T02:36:05;95001.72;;;7.24;61.67
35892;BME280;21993;42.672;23.296;2023-03-20T02:41:38;94998.06;;;7.51;60.33
35892;BME280;21993;42.672;23.296;2023-03-20T02:47:12;94995.44;;;7.14;61.35
35892;BME280;21993;42.672;23.296;2023-03-20T02:50:06;94999.66;;;7.04;61.90
35892;BME280;21993;42.672;23.296;2023-03-20T02:58:33;94997.59;;;6.84;62.29
35892;BME280;21993;42.672;23.296;2023-03-20T03:00:39;94992.47;;;6.69;63.00
35892;BME280;21993;42.672;23.296;2023-03-20T03:03:38;94989.88;;;6.82;62.66
35892;BME280;21993;42.672;23.296;2023-03-20T03:06:11;94990.09;;;6.66;62.76
35892;BME280;21993;42.672;23.296;2023-03-20T03:08:46;94996.00;;;6.94;62.91
35892;BME280;21993;42.672;23.296;2023-03-20T03:11:13;95001.41;;;7.03;61.76
35892;BME280;21993;42.672;23.296;2023-03-20T03:13:44;94989.66;;;6.98;62.35
35892;BME280;21993;42.672;23.296;2023-03-20T03:16:32;94987.84;;;7.11;61.72
35892;BME280;21993;42.672;23.296;2023-03-20T03:19:09;94993.47;;;7.05;61.94
35892;BME280;21993;42.672;23.296;2023-03-20T03:21:39;94993.81;;;7.00;61.96
35892;BME280;21993;42.672;23.296;2023-03-20T03:24:05;94987.53;;;7.03;62.35
35892;BME280;21993;42.672;23.296;2023-03-20T03:26:36;94990.72;;;6.83;62.35
35892;BME280;21993;42.672;23.296;2023-03-20T03:29:11;94990.91;;;6.80;62.55
35892;BME280;21993;42.672;23.296;2023-03-20T03:31:40;94984.97;;;6.90;62.25
35892;BME280;21993;42.672;23.296;2023-03-20T03:34:11;94992.16;;;6.87;62.46
35892;BME280;21993;42.672;23.296;2023-03-20T03:47:38;94991.50;;;6.96;62.83
35892;BME280;21993;42.672;23.296;2023-03-20T03:50:14;94987.56;;;6.77;62.92
35892;BME280;21993;42.672;23.296;2023-03-20T03:52:42;94991.03;;;6.65;63.75
35892;BME280;21993;42.672;23.296;2023-03-20T03:55:13;94984.97;;;6.77;63.32
35892;BME280;21993;42.672;23.296;2023-03-20T03:57:47;94976.41;;;6.75;63.49
35892;BME280;21993;42.672;23.296;2023-03-20T04:00:18;94987.16;;;6.71;63.30
35892;BME280;21993;42.672;23.296;2023-03-20T04:02:48;94984.25;;;6.63;63.48
35892;BME280;21993;42.672;23.296;2023-03-20T04:05:15;94976.84;;;6.69;63.18
35892;BME280;21993;42.672;23.296;2023-03-20T04:07:44;94982.16;;;6.68;63.00
35892;BME280;21993;42.672;23.296;2023-03-20T04:10:11;94976.03;;;6.56;63.31
35892;BME280;21993;42.672;23.296;2023-03-20T04:12:41;94974.56;;;6.52;63.47
35892;BME280;21993;42.672;23.296;2023-03-20T04:15:07;94979.47;;;6.57;62.93
35892;BME280;21993;42.672;23.296;2023-03-20T04:17:33;94979.44;;;6.69;62.68
35892;BME280;21993;42.672;23.296;2023-03-20T04:19:58;94975.28;;;6.54;63.21
35892;BME280;21993;42.672;23.296;2023-03-20T04:22:24;94965.47;;;6.58;63.66
35892;BME280;21993;42.672;23.296;2023-03-20T04:24:50;94972.06;;;6.51;63.41
35892;BME280;21993;42.672;23.296;2023-03-20T04:27:17;94963.19;;;6.53;62.86
35892;BME280;21993;42.672;23.296;2023-03-20T04:29:43;94960.78;;;6.63;62.88
35892;BME280;21993;42.672;23.296;2023-03-20T04:32:08;94971.63;;;6.69;62.73
35892;BME280;21993;42.672;23.296;2023-03-20T04:34:34;94974.34;;;6.68;62.44
35892;BME280;21993;42.672;23.296;2023-03-20T04:36:59;94972.03;;;6.76;62.27
35892;BME280;21993;42.672;23.296;2023-03-20T04:39:27;94972.56;;;6.81;62.30
35892;BME280;21993;42.672;23.296;2023-03-20T04:41:52;94978.59;;;6.94;61.83
35892;BME280;21993;42.672;23.296;2023-03-20T04:44:18;94987.75;;;7.00;62.16
35892;BME280;21993;42.672;23.296;2023-03-20T04:46:43;94985.81;;;6.78;62.30
35892;BME280;21993;42.672;23.296;2023-03-20T04:49:09;94995.78;;;6.97;61.71
35892;BME280;21993;42.672;23.296;2023-03-20T04:51:34;94997.78;;;6.93;61.79
35892;BME280;21993;42.672;23.296;2023-03-20T04:54:00;95005.16;;;7.12;61.16
35892;BME280;21993;42.672;23.296;2023-03-20T04:56:25;95014.25;;;7.19;61.54
35892;BME280;21993;42.672;23.296;2023-03-20T04:58:51;95001.72;;;7.24;61.15
35892;BME280;21993;42.672;23.296;2023-03-20T05:01:16;95008.06;;;7.33;60.99
35892;BME280;21993;42.672;23.296;2023-03-20T05:03:42;95003.50;;;7.24;61.84
35892;BME280;21993;42.672;23.296;2023-03-20T05:06:08;95006.00;;;7.13;61.61
35892;BME280;21993;42.672;23.296;2023-03-20T05:08:33;94996.50;;;7.24;62.18
35892;BME280;21993;42.672;23.296;2023-03-20T05:10:59;95013.06;;;7.36;61.49
35892;BME280;21993;42.672;23.296;2023-03-20T05:13:24;95006.34;;;7.45;61.89
35892;BME280;21993;42.672;23.296;2023-03-20T05:15:50;95010.50;;;7.47;61.51
35892;BME280;21993;42.672;23.296;2023-03-20T05:18:15;95013.50;;;7.54;61.62
35892;BME280;21993;42.672;23.296;2023-03-20T05:20:40;95019.03;;;7.62;61.17
35892;BME280;21993;42.672;23.296;2023-03-20T05:23:06;95011.59;;;7.69;61.33
35892;BME280;21993;42.672;23.296;2023-03-20T05:25:31;95016.38;;;7.75;60.87
35892;BME280;21993;42.672;23.296;2023-03-20T05:27:57;95023.88;;;7.79;60.67
35892;BME280;21993;42.672;23.296;2023-03-20T05:30:22;95014.75;;;7.85;61.44
35892;BME280;21993;42.672;23.296;2023-03-20T05:32:49;95021.41;;;7.89;60.50
35892;BME280;21993;42.672;23.296;2023-03-20T05:35:15;95019.31;;;7.94;60.49
35892;BME280;21993;42.672;23.296;2023-03-20T05:37:40;95015.31;;;8.01;61.42
35892;BME280;21993;42.672;23.296;2023-03-20T05:40:06;95016.63;;;8.07;60.93
35892;BME280;21993;42.672;23.296;2023-03-20T05:42:32;95018.31;;;8.08;60.68
35892;BME280;21993;42.672;23.296;2023-03-20T05:44:57;95011.91;;;8.12;61.06
35892;BME280;21993;42.672;23.296;2023-03-20T05:47:23;95020.69;;;8.11;61.42
35892;BME280;21993;42.672;23.296;2023-03-20T05:49:48;95021.28;;;8.14;61.40
35892;BME280;21993;42.672;23.296;2023-03-20T05:52:14;95021.47;;;8.24;60.86
35892;BME280;21993;42.672;23.296;2023-03-20T05:54:39;95022.00;;;8.40;60.55
35892;BME280;21993;42.672;23.296;2023-03-20T05:57:05;95024.50;;;8.42;60.07
35892;BME280;21993;42.672;23.296;2023-03-20T05:59:31;95032.75;;;8.25;60.28
35892;BME280;21993;42.672;23.296;2023-03-20T06:01:56;95023.19;;;8.36;59.80
35892;BME280;21993;42.672;23.296;2023-03-20T06:04:21;95027.13;;;8.42;59.83
35892;BME280;21993;42.672;23.296;2023-03-20T06:06:47;95022.88;;;8.52;59.63
35892;BME280;21993;42.672;23.296;2023-03-20T06:09:12;95019.81;;;8.69;58.81
35892;BME280;21993;42.672;23.296;2023-03-20T06:11:38;95018.16;;;8.80;58.34
35892;BME280;21993;42.672;23.296;2023-03-20T06:14:03;95024.97;;;8.93;58.39
35892;BME280;21993;42.672;23.296;2023-03-20T06:16:28;95022.69;;;8.89;58.72
35892;BME280;21993;42.672;23.296;2023-03-20T06:18:54;95023.19;;;8.94;58.61
35892;BME280;21993;42.672;23.296;2023-03-20T06:21:19;95016.97;;;9.06;58.05
35892;BME280;21993;42.672;23.296;2023-03-20T06:23:45;95021.72;;;9.23;57.61
35892;BME280;21993;42.672;23.296;2023-03-20T06:26:10;95030.69;;;9.21;57.65
35892;BME280;21993;42.672;23.296;2023-03-20T06:28:36;95032.44;;;9.31;57.56
35892;BME280;21993;42.672;23.296;2023-03-20T06:31:01;95028.41;;;9.39;57.29
35892;BME280;21993;42.672;23.296;2023-03-20T06:33:27;95019.22;;;9.44;57.19
35892;BME280;21993;42.672;23.296;2023-03-20T06:35:53;95027.34;;;9.30;57.51
35892;BME280;21993;42.672;23.296;2023-03-20T06:38:18;95022.56;;;9.24;57.50
35892;BME280;21993;42.672;23.296;2023-03-20T06:40:44;95033.16;;;9.45;56.79
35892;BME280;21993;42.672;23.296;2023-03-20T06:43:09;95028.03;;;9.54;57.05
35892;BME280;21993;42.672;23.296;2023-03-20T06:45:37;95030.63;;;9.66;56.18
35892;BME280;21993;42.672;23.296;2023-03-20T06:48:05;95022.16;;;9.73;56.25
35892;BME280;21993;42.672;23.296;2023-03-20T06:50:31;95023.06;;;9.83;55.85
35892;BME280;21993;42.672;23.296;2023-03-20T06:52:56;95019.09;;;10.00;55.89
35892;BME280;21993;42.672;23.296;2023-03-20T06:55:22;95014.50;;;9.93;55.25
35892;BME280;21993;42.672;23.296;2023-03-20T06:57:47;95015.84;;;9.76;55.82
35892;BME280;21993;42.672;23.296;2023-03-20T07:00:13;95016.63;;;9.87;55.48
35892;BME280;21993;42.672;23.296;2023-03-20T07:02:38;95015.63;;;10.00;55.38
35892;BME280;21993;42.672;23.296;2023-03-20T07:05:04;95007.47;;;10.14;55.75
35892;BME280;21993;42.672;23.296;2023-03-20T07:07:30;95002.22;;;10.25;55.12
35892;BME280;21993;42.672;23.296;2023-03-20T07:09:55;95001.41;;;10.46;54.41
35892;BME280;21993;42.672;23.296;2023-03-20T07:12:21;95006.59;;;10.57;53.80
35892;BME280;21993;42.672;23.296;2023-03-20T07:14:50;95006.91;;;10.42;54.76
35892;BME280;21993;42.672;23.296;2023-03-20T07:17:15;94997.03;;;10.56;54.83
35892;BME280;21993;42.672;23.296;2023-03-20T07:19:41;94998.91;;;10.65;54.77
35892;BME280;21993;42.672;23.296;2023-03-20T07:22:08;94991.66;;;10.78;53.84
35892;BME280;21993;42.672;23.296;2023-03-20T07:24:40;94992.03;;;10.94;53.48
35892;BME280;21993;42.672;23.296;2023-03-20T07:27:05;95000.38;;;11.09;52.99
35892;BME280;21993;42.672;23.296;2023-03-20T07:29:31;94998.31;;;11.13;52.81
35892;BME280;21993;42.672;23.296;2023-03-20T07:31:56;94997.34;;;11.14;53.30
35892;BME280;21993;42.672;23.296;2023-03-20T07:34:22;94997.28;;;11.35;52.76
35892;BME280;21993;42.672;23.296;2023-03-20T07:36:47;94999.84;;;11.46;52.04
35892;BME280;21993;42.672;23.296;2023-03-20T07:39:12;95004.66;;;11.50;52.80
35892;BME280;21993;42.672;23.296;2023-03-20T07:41:38;94995.94;;;11.80;51.75
35892;BME280;21993;42.672;23.296;2023-03-20T07:44:03;95003.69;;;11.92;51.35
35892;BME280;21993;42.672;23.296;2023-03-20T07:46:29;95003.53;;;11.93;51.06
35892;BME280;21993;42.672;23.296;2023-03-20T07:48:54;95000.66;;;12.06;50.18
35892;BME280;21993;42.672;23.296;2023-03-20T07:51:22;95006.19;;;11.93;51.29
35892;BME280;21993;42.672;23.296;2023-03-20T07:53:48;95003.16;;;12.07;50.98
35892;BME280;21993;42.672;23.296;2023-03-20T07:56:13;95002.06;;;12.20;51.10
35892;BME280;21993;42.672;23.296;2023-03-20T07:58:38;94997.59;;;12.10;51.82
35892;BME280;21993;42.672;23.296;2023-03-20T08:01:04;94997.19;;;12.44;50.28
35892;BME280;21993;42.672;23.296;2023-03-20T08:03:30;94999.84;;;12.54;50.31
35892;BME280;21993;42.672;23.296;2023-03-20T08:05:55;94995.53;;;12.62;49.95
35892;BME280;21993;42.672;23.296;2023-03-20T08:08:21;95000.63;;;12.74;50.05
35892;BME280;21993;42.672;23.296;2023-03-20T08:10:46;95001.19;;;12.87;49.68
35892;BME280;21993;42.672;23.296;2023-03-20T08:13:12;94993.09;;;12.98;49.47
35892;BME280;21993;42.672;23.296;2023-03-20T08:15:38;94992.47;;;13.23;48.50
35892;BME280;21993;42.672;23.296;2023-03-20T08:18:03;94991.59;;;13.33;48.65
35892;BME280;21993;42.672;23.296;2023-03-20T08:20:29;94992.13;;;13.36;48.50
35892;BME280;21993;42.672;23.296;2023-03-20T08:22:55;94989.75;;;13.43;48.38
35892;BME280;21993;42.672;23.296;2023-03-20T08:25:21;94987.31;;;13.59;47.54
35892;BME280;21993;42.672;23.296;2023-03-20T08:27:47;94993.50;;;13.68;47.38
35892;BME280;21993;42.672;23.296;2023-03-20T08:30:13;94991.72;;;13.86;47.00
35892;BME280;21993;42.672;23.296;2023-03-20T08:32:39;94997.75;;;13.78;46.25
35892;BME280;21993;42.672;23.296;2023-03-20T08:35:05;94993.34;;;13.97;45.86
35892;BME280;21993;42.672;23.296;2023-03-20T08:37:32;94997.97;;;14.13;44.97
35892;BME280;21993;42.672;23.296;2023-03-20T08:39:57;94993.28;;;14.24;44.35
35892;BME280;21993;42.672;23.296;2023-03-20T08:42:23;94993.03;;;14.00;45.44
35892;BME280;21993;42.672;23.296;2023-03-20T08:44:48;94987.84;;;14.08;45.70
35892;BME280;21993;42.672;23.296;2023-03-20T08:47:14;94988.00;;;14.24;45.74
35892;BME280;21993;42.672;23.296;2023-03-20T08:49:40;94983.16;;;14.37;45.01
35892;BME280;21993;42.672;23.296;2023-03-20T08:52:05;94987.66;;;14.55;44.76
35892;BME280;21993;42.672;23.296;2023-03-20T08:54:31;94981.28;;;14.66;43.72
35892;BME280;21993;42.672;23.296;2023-03-20T08:56:57;94978.72;;;14.74;44.50
35892;BME280;21993;42.672;23.296;2023-03-20T08:59:23;94973.63;;;14.80;44.26
35892;BME280;21993;42.672;23.296;2023-03-20T09:01:49;94983.00;;;15.01;43.85
35892;BME280;21993;42.672;23.296;2023-03-20T09:04:14;94981.69;;;15.05;43.65
35892;BME280;21993;42.672;23.296;2023-03-20T09:06:40;94982.56;;;15.05;43.56
35892;BME280;21993;42.672;23.296;2023-03-20T09:09:06;94973.16;;;15.11;43.58
35892;BME280;21993;42.672;23.296;2023-03-20T09:11:31;94972.28;;;15.36;42.97
35892;BME280;21993;42.672;23.296;2023-03-20T09:13:57;94968.19;;;15.42;43.44
35892;BME280;21993;42.672;23.296;2023-03-20T09:16:24;94964.47;;;15.61;43.31
35892;BME280;21993;42.672;23.296;2023-03-20T09:18:49;94960.56;;;15.73;42.71
35892;BME280;21993;42.672;23.296;2023-03-20T09:21:15;94956.97;;;15.90;41.99
35892;BME280;21993;42.672;23.296;2023-03-20T09:23:40;94950.53;;;15.93;42.26
35892;BME280;21993;42.672;23.296;2023-03-20T09:26:05;94951.72;;;16.15;41.29
35892;BME280;21993;42.672;23.296;2023-03-20T09:28:31;94947.41;;;16.14;41.11
35892;BME280;21993;42.672;23.296;2023-03-20T09:30:57;94945.06;;;15.94;41.52
35892;BME280;21993;42.672;23.296;2023-03-20T09:33:23;94941.91;;;15.91;41.97
35892;BME280;21993;42.672;23.296;2023-03-20T09:35:48;94951.84;;;15.97;41.64
35892;BME280;21993;42.672;23.296;2023-03-20T09:38:14;94951.53;;;16.00;41.42
35892;BME280;21993;42.672;23.296;2023-03-20T09:40:58;94940.44;;;16.13;41.37
35892;BME280;21993;42.672;23.296;2023-03-20T09:43:49;94927.19;;;15.96;41.79
35892;BME280;21993;42.672;23.296;2023-03-20T09:49:10;94920.09;;;16.46;41.10
35892;BME280;21993;42.672;23.296;2023-03-20T09:51:47;94906.84;;;16.62;41.41
35892;BME280;21993;42.672;23.296;2023-03-20T09:54:26;94896.56;;;16.67;40.87
35892;BME280;21993;42.672;23.296;2023-03-20T09:56:54;94893.41;;;16.88;41.29
35892;BME280;21993;42.672;23.296;2023-03-20T09:59:23;94889.56;;;16.99;40.86
35892;BME280;21993;42.672;23.296;2023-03-20T10:01:52;94889.81;;;17.20;40.86
35892;BME280;21993;42.672;23.296;2023-03-20T10:04:18;94883.25;;;17.39;39.55
35892;BME280;21993;42.672;23.296;2023-03-20T10:06:44;94872.97;;;17.44;39.41
35892;BME280;21993;42.672;23.296;2023-03-20T10:09:20;94870.09;;;17.54;39.26
35892;BME280;21993;42.672;23.296;2023-03-20T10:12:13;94866.00;;;17.43;40.31
35892;BME280;21993;42.672;23.296;2023-03-20T10:18:00;94865.97;;;17.82;38.79
35892;BME280;21993;42.672;23.296;2023-03-20T10:23:32;94858.38;;;17.79;38.97
35892;BME280;21993;42.672;23.296;2023-03-20T10:28:40;94856.66;;;18.09;37.79
35892;BME280;21993;42.672;23.296;2023-03-20T10:31:32;94851.28;;;17.94;38.44
35892;BME280;21993;42.672;23.296;2023-03-20T10:41:57;94838.25;;;18.45;37.65
35892;BME280;21993;42.672;23.296;2023-03-20T10:45:07;94835.28;;;18.40;37.92
35892;BME280;21993;42.672;23.296;2023-03-20T10:47:39;94821.00;;;18.41;37.29
35892;BME280;21993;42.672;23.296;2023-03-20T10:50:16;94818.78;;;18.68;37.38
35892;BME280;21993;42.672;23.296;2023-03-20T10:52:43;94814.66;;;18.80;37.08
35892;BME280;21993;42.672;23.296;2023-03-20T10:55:21;94812.81;;;18.95;36.19
35892;BME280;21993;42.672;23.296;2023-03-20T10:57:53;94809.31;;;19.09;35.94
35892;BME280;21993;42.672;23.296;2023-03-20T11:00:22;94811.41;;;19.29;35.47
35892;BME280;21993;42.672;23.296;2023-03-20T11:02:49;94808.25;;;19.40;34.68
35892;BME280;21993;42.672;23.296;2023-03-20T11:05:31;94806.81;;;19.23;34.36
35892;BME280;21993;42.672;23.296;2023-03-20T11:10:27;94798.78;;;19.01;35.10
35892;BME280;21993;42.672;23.296;2023-03-20T11:12:52;94784.03;;;18.84;35.23
35892;BME280;21993;42.672;23.296;2023-03-20T11:15:26;94784.81;;;19.14;34.87
35892;BME280;21993;42.672;23.296;2023-03-20T11:18:04;94788.81;;;19.25;34.66
35892;BME280;21993;42.672;23.296;2023-03-20T11:20:45;94778.41;;;19.45;35.70
35892;BME280;21993;42.672;23.296;2023-03-20T11:23:15;94775.28;;;19.77;34.80
35892;BME280;21993;42.672;23.296;2023-03-20T11:25:51;94780.84;;;19.82;34.94
35892;BME280;21993;42.672;23.296;2023-03-20T11:28:30;94764.50;;;19.85;34.43
35892;BME280;21993;42.672;23.296;2023-03-20T11:30:58;94762.22;;;20.04;34.37
35892;BME280;21993;42.672;23.296;2023-03-20T11:33:26;94753.13;;;20.26;34.01
35892;BME280;21993;42.672;23.296;2023-03-20T11:35:55;94741.09;;;20.30;33.26
35892;BME280;21993;42.672;23.296;2023-03-20T11:38:22;94751.06;;;20.21;33.18
35892;BME280;21993;42.672;23.296;2023-03-20T11:40:48;94749.75;;;20.39;33.33
35892;BME280;21993;42.672;23.296;2023-03-20T11:43:26;94743.69;;;20.45;32.35
35892;BME280;21993;42.672;23.296;2023-03-20T11:46:00;94721.03;;;20.41;33.81
35892;BME280;21993;42.672;23.296;2023-03-20T11:48:38;94719.00;;;20.71;32.14
35892;BME280;21993;42.672;23.296;2023-03-20T11:51:06;94715.19;;;20.87;31.59
35892;BME280;21993;42.672;23.296;2023-03-20T11:53:37;94718.25;;;20.90;31.87
35892;BME280;21993;42.672;23.296;2023-03-20T11:56:13;94717.75;;;21.15;30.79
35892;BME280;21993;42.672;23.296;2023-03-20T12:01:19;94700.19;;;21.47;29.61
35892;BME280;21993;42.672;23.296;2023-03-20T12:06:36;94696.47;;;21.28;30.28
35892;BME280;21993;42.672;23.296;2023-03-20T12:09:11;94695.19;;;21.24;30.77
35892;BME280;21993;42.672;23.296;2023-03-20T12:14:17;94687.28;;;21.70;29.96
35892;BME280;21993;42.672;23.296;2023-03-20T12:16:49;94680.91;;;21.64;29.85
35892;BME280;21993;42.672;23.296;2023-03-20T12:19:19;94682.13;;;21.69;30.74
35892;BME280;21993;42.672;23.296;2023-03-20T12:22:14;94677.81;;;21.94;29.24
35892;BME280;21993;42.672;23.296;2023-03-20T12:24:46;94672.25;;;22.02;29.13
35892;BME280;21993;42.672;23.296;2023-03-20T12:27:35;94673.53;;;22.13;29.02
35892;BME280;21993;42.672;23.296;2023-03-20T12:30:17;94668.13;;;22.33;28.72
35892;BME280;21993;42.672;23.296;2023-03-20T12:35:29;94654.53;;;22.41;28.17
35892;BME280;21993;42.672;23.296;2023-03-20T12:37:54;94662.84;;;22.13;28.30
35892;BME280;21993;42.672;23.296;2023-03-20T12:40:27;94656.84;;;22.24;28.33
35892;BME280;21993;42.672;23.296;2023-03-20T12:43:07;94656.00;;;22.37;27.61
35892;BME280;21993;42.672;23.296;2023-03-20T12:57:01;94629.72;;;22.79;26.20
35892;BME280;21993;42.672;23.296;2023-03-20T13:02:44;94618.84;;;22.67;26.00
35892;BME280;21993;42.672;23.296;2023-03-20T13:05:24;94620.28;;;22.69;26.19
35892;BME280;21993;42.672;23.296;2023-03-20T13:14:12;94608.25;;;22.92;25.56
35892;BME280;21993;42.672;23.296;2023-03-20T13:16:27;94608.91;;;22.87;25.36
35892;BME280;21993;42.672;23.296;2023-03-20T13:21:33;94597.69;;;23.03;25.40
35892;BME280;21993;42.672;23.296;2023-03-20T13:26:53;94598.28;;;23.12;25.25
35892;BME280;21993;42.672;23.296;2023-03-20T13:32:19;94584.75;;;22.94;25.22
35892;BME280;21993;42.672;23.296;2023-03-20T13:38:14;94581.75;;;22.77;24.93
35892;BME280;21993;42.672;23.296;2023-03-20T13:40:42;94577.00;;;22.79;25.04
35892;BME280;21993;42.672;23.296;2023-03-20T13:45:58;94577.63;;;22.74;25.24
35892;BME280;21993;42.672;23.296;2023-03-20T13:48:38;94571.28;;;22.69;25.55
35892;BME280;21993;42.672;23.296;2023-03-20T13:51:21;94572.03;;;22.83;25.47
35892;BME280;21993;42.672;23.296;2023-03-20T13:59:33;94563.47;;;22.67;24.63
35892;BME280;21993;42.672;23.296;2023-03-20T14:02:22;94565.53;;;22.65;25.15
35892;BME280;21993;42.672;23.296;2023-03-20T14:05:02;94560.88;;;22.54;24.71
35892;BME280;21993;42.672;23.296;2023-03-20T14:07:33;94557.50;;;22.65;24.04
35892;BME280;21993;42.672;23.296;2023-03-20T14:12:54;94542.31;;;22.59;24.29
35892;BME280;21993;42.672;23.296;2023-03-20T14:15:21;94539.22;;;22.62;24.22
35892;BME280;21993;42.672;23.296;2023-03-20T14:17:49;94536.00;;;22.47;24.31
35892;BME280;21993;42.672;23.296;2023-03-20T14:22:55;94539.22;;;22.62;23.39
35892;BME280;21993;42.672;23.296;2023-03-20T14:25:21;94530.88;;;22.45;24.11
35892;BME280;21993;42.672;23.296;2023-03-20T14:27:58;94537.66;;;22.41;25.49
35892;BME280;21993;42.672;23.296;2023-03-20T14:36:26;94522.41;;;22.48;24.97
35892;BME280;21993;42.672;23.296;2023-03-20T14:38:39;94529.19;;;22.44;24.66
35892;BME280;21993;42.672;23.296;2023-03-20T14:44:43;94517.66;;;22.51;23.90
35892;BME280;21993;42.672;23.296;2023-03-20T14:47:41;94521.00;;;22.39;23.96
35892;BME280;21993;42.672;23.296;2023-03-20T14:53:15;94524.69;;;22.45;24.13
35892;BME280;21993;42.672;23.296;2023-03-20T15:01:04;94517.91;;;22.36;24.83
35892;BME280;21993;42.672;23.296;2023-03-20T15:03:31;94512.56;;;22.36;24.85
35892;BME280;21993;42.672;23.296;2023-03-20T15:05:59;94512.53;;;22.49;24.59
35892;BME280;21993;42.672;23.296;2023-03-20T15:08:32;94507.44;;;22.34;23.92
35892;BME280;21993;42.672;23.296;2023-03-20T15:11:04;94511.81;;;22.22;24.52
35892;BME280;21993;42.672;23.296;2023-03-20T15:13:34;94514.53;;;22.15;24.95
35892;BME280;21993;42.672;23.296;2023-03-20T15:16:05;94529.53;;;22.16;25.16
35892;BME280;21993;42.672;23.296;2023-03-20T15:18:42;94510.00;;;22.16;24.73
35892;BME280;21993;42.672;23.296;2023-03-20T15:21:20;94526.69;;;22.11;25.06